Terminal Aerodrome Forecast
Issued by NWS Spokane, WA

Home | Current Version | Previous Version | Text Only | Print | Product List | Glossary On
Versions: 1 2 3 4 5 6 7 8 9 10 11 12
000
FTUS46 KOTX 161730
TAFEAT
TAF
KEAT 161730Z 1618/1718 VRB03KT P6SM SKC
     FM161900 12007KT P6SM SKC
     FM170400 32005KT P6SM BKN200
     FM171500 31010KT P6SM SCT150 BKN200 WS020/24030KT=

USA.gov is the U.S. government's official web portal to all federal, state and local government web resources and services.